Time;durP1;ratioP1;P1;durP2;ratioP2;P2;SDS_P1;SDS_P2;PMS_P1;PMS_P2;Temp;Humidity;BMP_temperature;BMP_pressure;BME280_temperature;BME280_humidity;BME280_pressure;Samples;Min_cycle;Max_cycle;Signal;HPM_P1;HPM_P2
2022/04/11 04:22:35;;;;;;;12.98;6.72;;;;;;;3.45;80.22;100531.81;5130133;27;20112;-76
2022/04/11 04:25:03;;;;;;;13.23;6.60;;;;;;;3.48;79.29;100535.06;5094851;28;20035;-75
2022/04/11 04:27:29;;;;;;;15.75;8.05;;;;;;;3.41;80.40;100520.69;5128109;28;20040;-76
2022/04/11 04:29:56;;;;;;;12.97;7.30;;;;;;;3.47;79.76;100514.09;5128783;28;20050;-76
2022/04/11 04:32:22;;;;;;;11.52;7.15;;;;;;;3.45;79.48;100516.00;5087452;22;20306;-76
2022/04/11 04:34:49;;;;;;;13.40;7.88;;;;;;;3.38;80.64;100513.00;5104100;28;20131;-73
2022/04/11 04:37:15;;;;;;;12.50;7.50;;;;;;;3.37;80.46;100519.25;5104339;28;20409;-74
2022/04/11 04:39:41;;;;;;;10.20;7.22;;;;;;;3.42;80.32;100527.63;5104342;28;20045;-74
2022/04/11 04:42:08;;;;;;;12.65;6.85;;;;;;;3.39;80.44;100512.09;5087125;28;20037;-75
2022/04/11 04:44:33;;;;;;;14.48;7.47;;;;;;;3.37;80.92;100510.50;5088614;28;20032;-74
2022/04/11 04:47:01;;;;;;;14.07;8.82;;;;;;;3.35;80.68;100505.38;5103600;28;20489;-74
2022/04/11 04:49:36;;;;;;;11.40;7.57;;;;;;;3.37;80.09;100503.44;5088542;28;20052;-75
2022/04/11 04:52:06;;;;;;;12.25;8.68;;;;;;;3.39;79.86;100505.94;5087471;28;20033;-75
2022/04/11 04:54:36;;;;;;;14.23;7.75;;;;;;;3.36;80.53;100507.03;5105282;28;20542;-74
2022/04/11 04:57:04;;;;;;;14.37;8.10;;;;;;;3.25;81.22;100501.78;5089388;28;20489;-74
2022/04/11 04:59:30;;;;;;;14.93;8.15;;;;;;;3.31;80.33;100514.47;5087281;28;20035;-75
2022/04/11 05:02:01;;;;;;;11.98;7.43;;;;;;;3.35;80.43;100499.28;5086684;28;20051;-74
2022/04/11 05:04:27;;;;;;;13.05;7.63;;;;;;;3.34;80.25;100503.69;5087187;28;20442;-71
2022/04/11 05:06:55;;;;;;;11.30;7.53;;;;;;;3.34;80.26;100501.06;5103865;28;20063;-73
2022/04/11 05:09:21;;;;;;;11.52;8.10;;;;;;;3.32;80.49;100505.59;5086729;28;20040;-74
2022/04/11 05:11:48;;;;;;;13.75;7.68;;;;;;;3.35;79.94;100499.28;5086480;28;20506;-74
2022/04/11 05:14:15;;;;;;;12.45;8.23;;;;;;;3.24;81.13;100500.94;5086653;28;20097;-73
2022/04/11 05:16:42;;;;;;;18.15;8.93;;;;;;;3.33;80.30;100496.75;5103286;28;20037;-73
2022/04/11 05:19:12;;;;;;;13.27;8.02;;;;;;;3.37;80.15;100497.34;5070196;28;20182;-73
2022/04/11 05:21:38;;;;;;;12.40;8.20;;;;;;;3.47;79.50;100500.94;5069403;28;20131;-73
2022/04/11 05:24:04;;;;;;;17.13;8.88;;;;;;;3.54;79.93;100502.97;5087536;28;20037;-72
2022/04/11 05:26:30;;;;;;;13.73;7.85;;;;;;;3.57;79.07;100501.03;5069506;28;20488;-72
2022/04/11 05:28:56;;;;;;;11.55;7.55;;;;;;;3.65;78.59;100501.25;5086213;28;20048;-72
2022/04/11 05:31:23;;;;;;;13.18;7.60;;;;;;;3.72;78.04;100503.28;5085861;28;20051;-73
2022/04/11 05:33:51;;;;;;;13.70;8.15;;;;;;;3.79;77.88;100508.91;5073446;28;20381;-74
2022/04/11 05:36:17;;;;;;;16.15;8.30;;;;;;;3.87;77.46;100506.50;5072840;28;20044;-75
2022/04/11 05:38:44;;;;;;;17.45;9.18;;;;;;;3.90;77.82;100506.22;5089369;28;20064;-72
2022/04/11 05:41:09;;;;;;;14.73;8.80;;;;;;;3.99;78.09;100510.78;5072738;28;20048;-71
2022/04/11 05:43:42;;;;;;;13.05;7.28;;;;;;;4.10;76.14;100509.88;5089554;28;20037;-71
2022/04/11 05:46:09;;;;;;;13.55;8.00;;;;;;;4.10;76.34;100509.88;5072535;28;20032;-71
2022/04/11 05:48:36;;;;;;;14.00;7.80;;;;;;;4.23;75.98;100512.34;5089486;28;20055;-71
2022/04/11 05:51:04;;;;;;;14.48;8.25;;;;;;;4.35;75.28;100516.63;5089091;28;20044;-70
2022/04/11 05:53:31;;;;;;;14.10;7.90;;;;;;;4.46;74.51;100513.94;5072204;28;20382;-71
2022/04/11 05:55:56;;;;;;;15.07;8.65;;;;;;;4.51;75.18;100517.03;5055746;28;20113;-71
2022/04/11 05:58:22;;;;;;;13.55;8.18;;;;;;;4.67;74.48;100521.03;5055955;28;20036;-71
2022/04/11 06:00:49;;;;;;;10.77;8.10;;;;;;;4.88;73.29;100514.75;5089147;28;20497;-71
2022/04/11 06:03:14;;;;;;;15.88;8.15;;;;;;;5.12;72.76;100519.75;5072176;28;20055;-71
2022/04/11 06:05:42;;;;;;;17.13;9.87;;;;;;;5.29;71.90;100513.03;5072266;28;20044;-71
2022/04/11 06:08:07;;;;;;;16.05;7.78;;;;;;;5.48;70.90;100520.22;5055723;28;20040;-71
2022/04/11 06:10:40;;;;;;;13.13;7.75;;;;;;;5.52;69.88;100508.38;5075366;28;20058;-71
2022/04/11 06:13:06;;;;;;;;;;;;;;;5.63;69.20;100513.56;5056248;28;20132;-72
2022/04/11 06:15:32;;;;;;;14.68;7.25;;;;;;;5.58;69.80;100513.13;5073608;28;19940;-69
2022/04/11 06:17:59;;;;;;;13.70;7.80;;;;;;;5.64;69.60;100507.31;5071981;28;20549;-68
2022/04/11 06:20:24;;;;;;;10.32;6.65;;;;;;;5.89;68.74;100510.44;5071924;28;20036;-69
2022/04/11 06:22:50;;;;;;;13.00;7.18;;;;;;;6.03;67.84;100503.94;5088437;28;20479;-69
2022/04/11 06:25:17;;;;;;;11.38;7.30;;;;;;;6.20;67.94;100504.09;5088708;28;20060;-69
2022/04/11 06:27:42;;;;;;;13.75;7.90;;;;;;;6.36;66.56;100505.34;5073183;28;20034;-69
2022/04/11 06:30:09;;;;;;;11.43;7.40;;;;;;;6.69;65.36;100499.59;5087368;28;20630;-71
2022/04/11 06:32:38;;;;;;;15.93;7.32;;;;;;;6.87;64.70;100494.41;5070673;28;20047;-72
2022/04/11 06:35:04;;;;;;;12.73;6.18;;;;;;;7.03;63.34;100496.44;5088238;28;20036;-71
2022/04/11 06:37:30;;;;;;;10.45;6.35;;;;;;;7.17;63.10;100501.28;5088159;28;20052;-74
2022/04/11 06:39:58;;;;;;;10.55;6.22;;;;;;;7.24;63.81;100493.59;5088369;28;20087;-72
2022/04/11 06:42:24;;;;;;;10.57;6.65;;;;;;;7.28;62.60;100502.91;5088113;28;20508;-73
2022/04/11 06:44:52;;;;;;;11.30;6.07;;;;;;;7.34;62.52;100500.50;5087360;28;20130;-71
2022/04/11 06:47:21;;;;;;;9.32;6.13;;;;;;;7.50;62.12;100488.47;5088475;28;20037;-72
2022/04/11 06:49:48;;;;;;;8.63;5.55;;;;;;;7.47;61.81;100484.28;5071816;28;20501;-71
2022/04/11 06:52:14;;;;;;;8.35;5.32;;;;;;;7.56;62.12;100488.72;5087214;28;20041;-71
2022/04/11 06:54:39;;;;;;;7.80;5.30;;;;;;;7.64;61.33;100492.44;5072550;28;20036;-72
2022/04/11 06:57:05;;;;;;;10.18;6.03;;;;;;;7.75;62.18;100487.72;5072381;28;20566;-71
2022/04/11 06:59:31;;;;;;;9.85;5.43;;;;;;;7.91;61.18;100481.78;5072432;28;20067;-71
2022/04/11 07:01:57;;;;;;;10.60;5.47;;;;;;;8.04;61.06;100487.56;5071290;28;20063;-71
2022/04/11 07:04:22;;;;;;;10.73;6.65;;;;;;;7.98;60.45;100492.63;5071332;28;20112;-72
2022/04/11 07:06:48;;;;;;;11.65;5.63;;;;;;;8.18;60.97;100488.84;5072087;28;20064;-72
2022/04/11 07:09:14;;;;;;;10.30;6.35;;;;;;;8.34;59.24;100485.47;5072669;28;20037;-73
2022/04/11 07:11:40;;;;;;;9.82;5.88;;;;;;;8.13;60.81;100491.09;5068281;28;20040;-71
2022/04/11 07:14:06;;;;;;;13.30;5.50;;;;;;;8.26;60.66;100485.44;5071341;28;20043;-70
2022/04/11 07:16:32;;;;;;;11.02;6.20;;;;;;;8.30;59.86;100492.94;5072240;28;20454;-70
2022/04/11 07:18:58;;;;;;;11.98;6.75;;;;;;;8.46;62.82;100486.13;5072703;28;20115;-71
2022/04/11 07:21:24;;;;;;;9.10;5.43;;;;;;;8.62;60.27;100494.22;5070001;28;20044;-70
2022/04/11 07:23:49;;;;;;;10.30;5.38;;;;;;;8.72;58.90;100480.84;5072383;28;20029;-70
2022/04/11 07:26:15;;;;;;;8.88;5.72;;;;;;;8.85;58.77;100481.25;5072268;28;20433;-70
2022/04/11 07:28:41;;;;;;;10.77;5.85;;;;;;;8.74;58.47;100500.97;5071738;28;20084;-69
2022/04/11 07:31:07;;;;;;;13.23;6.32;;;;;;;8.76;60.39;100496.31;5071584;28;20405;-70
2022/04/11 07:33:32;;;;;;;9.60;6.00;;;;;;;9.15;61.08;100493.25;5071008;28;20093;-70
2022/04/11 07:35:58;;;;;;;12.90;7.20;;;;;;;9.26;58.86;100495.63;5071323;28;20041;-71
2022/04/11 07:38:24;;;;;;;11.93;6.22;;;;;;;9.41;60.33;100498.53;5071358;28;20059;-70
2022/04/11 07:40:49;;;;;;;9.88;6.03;;;;;;;9.32;57.56;100499.47;5071642;28;20028;-69
2022/04/11 07:43:15;;;;;;;16.40;6.38;;;;;;;9.59;59.39;100501.94;5070722;28;20047;-70
2022/04/11 07:45:41;;;;;;;13.85;7.13;;;;;;;9.73;56.52;100495.97;5071726;28;20070;-71
2022/04/11 07:48:07;;;;;;;8.65;5.78;;;;;;;9.79;57.74;100491.84;5071456;28;20109;-70
2022/04/11 07:50:33;;;;;;;9.15;5.43;;;;;;;10.04;53.25;100496.22;5069908;28;20682;-71
2022/04/11 07:52:59;;;;;;;8.68;5.82;;;;;;;10.07;53.23;100493.22;5070029;28;20120;-71
2022/04/11 07:55:24;;;;;;;9.93;5.82;;;;;;;10.16;54.07;100486.06;5071025;28;20342;-71
2022/04/11 07:57:50;;;;;;;7.55;5.28;;;;;;;10.28;53.01;100497.28;5054024;28;20036;-71
2022/04/11 08:00:17;;;;;;;11.00;5.90;;;;;;;10.38;52.06;100487.31;5071692;28;20443;-70
2022/04/11 08:02:42;;;;;;;10.80;6.15;;;;;;;10.44;52.46;100481.31;5070553;28;20032;-71
2022/04/11 08:05:09;;;;;;;10.15;6.22;;;;;;;10.67;52.72;100486.78;5069459;28;20040;-71
2022/04/11 08:07:35;;;;;;;8.23;4.88;;;;;;;10.96;52.40;100483.59;5071565;28;20662;-71
2022/04/11 08:10:06;;;;;;;8.18;5.30;;;;;;;11.04;51.14;100478.25;5071497;28;20139;-70
2022/04/11 08:12:32;;;;;;;8.75;5.10;;;;;;;11.26;49.96;100481.16;5069152;28;20032;-70
2022/04/11 08:14:59;;;;;;;11.05;5.10;;;;;;;11.38;50.75;100488.63;5069555;28;20052;-70
2022/04/11 08:17:25;;;;;;;10.85;5.18;;;;;;;11.44;50.47;100471.09;5071150;28;20404;-71
2022/04/11 08:19:51;;;;;;;12.43;4.68;;;;;;;11.64;50.98;100471.50;5086341;28;20045;-71
2022/04/11 08:22:17;;;;;;;7.45;4.50;;;;;;;11.83;48.21;100470.28;5070212;28;20047;-71
2022/04/11 08:24:42;;;;;;;6.68;4.07;;;;;;;12.03;49.51;100468.81;5070313;28;20037;-70
2022/04/11 08:27:08;;;;;;;8.73;4.38;;;;;;;12.18;44.83;100463.53;5071239;28;20060;-72
2022/04/11 08:29:34;;;;;;;5.30;3.63;;;;;;;12.15;47.60;100467.38;5070997;28;20032;-71
2022/04/11 08:31:59;;;;;;;7.20;3.97;;;;;;;12.36;46.40;100457.88;5069622;28;20039;-74
2022/04/11 08:34:25;;;;;;;6.88;3.58;;;;;;;12.46;44.67;100451.28;5070971;28;20135;-71
2022/04/11 08:36:51;;;;;;;5.93;3.17;;;;;;;12.56;42.75;100453.69;5073407;28;20040;-71
2022/04/11 08:39:16;;;;;;;7.68;4.10;;;;;;;12.69;43.94;100443.22;5054231;28;20474;-72
2022/04/11 08:41:42;;;;;;;6.13;3.17;;;;;;;12.77;44.03;100445.78;5070162;28;20054;-70
2022/04/11 08:44:08;;;;;;;6.40;4.07;;;;;;;12.83;43.17;100448.75;5070409;28;20119;-71
2022/04/11 08:46:35;;;;;;;8.25;3.75;;;;;;;12.99;43.50;100440.56;5070893;28;20466;-72
2022/04/11 08:49:02;;;;;;;6.90;3.13;;;;;;;13.17;43.88;100449.06;5069533;28;20102;-72
2022/04/11 08:51:31;;;;;;;6.45;3.35;;;;;;;13.38;41.95;100437.63;5068767;28;20056;-72
2022/04/11 08:53:59;;;;;;;7.15;3.60;;;;;;;13.18;41.47;100442.69;5085755;28;20559;-70
2022/04/11 08:56:25;;;;;;;7.90;3.70;;;;;;;13.62;40.91;100438.31;5070678;28;20485;-72
2022/04/11 08:58:50;;;;;;;6.93;3.40;;;;;;;13.47;40.21;100436.50;5070592;28;20040;-72
2022/04/11 09:01:20;;;;;;;7.22;3.20;;;;;;;13.78;39.95;100438.09;5070353;28;20040;-70
2022/04/11 09:03:46;;;;;;;7.32;3.50;;;;;;;13.82;39.42;100442.91;5068773;28;20036;-71
2022/04/11 09:06:15;;;;;;;5.10;2.88;;;;;;;13.83;39.60;100433.84;5069132;28;20029;-71
2022/04/11 09:08:46;;;;;;;9.75;3.13;;;;;;;14.05;38.97;100433.84;5072237;28;20516;-71
2022/04/11 09:11:12;;;;;;;9.43;3.22;;;;;;;14.03;39.43;100428.69;5074576;28;20389;-72
2022/04/11 09:13:50;;;;;;;8.82;3.17;;;;;;;14.37;37.46;100425.28;5080779;28;20465;-73
2022/04/11 09:16:16;;;;;;;8.70;3.30;;;;;;;14.52;37.34;100419.84;5087702;28;20036;-72
2022/04/11 09:18:47;;;;;;;7.50;3.08;;;;;;;14.52;37.58;100411.81;5094929;28;20574;-72
2022/04/11 09:21:14;;;;;;;5.57;3.00;;;;;;;14.67;37.08;100411.72;5094741;28;20028;-72
2022/04/11 09:23:39;;;;;;;5.35;2.85;;;;;;;14.77;36.69;100406.84;5094320;28;20545;-72
2022/04/11 09:26:19;;;;;;;5.30;2.97;;;;;;;14.83;35.42;100408.72;5094613;28;20119;-72
2022/04/11 09:29:01;;;;;;;4.88;3.03;;;;;;;15.09;37.07;100412.59;5094661;28;20103;-72
2022/04/11 09:31:27;;;;;;;4.68;2.42;;;;;;;15.12;36.58;100401.44;5076848;28;20124;-72
2022/04/11 09:33:53;;;;;;;5.85;3.30;;;;;;;15.56;35.99;100401.00;5077779;28;20116;-71
2022/04/11 09:36:20;;;;;;;5.80;2.63;;;;;;;15.70;34.80;100401.91;5069454;28;20083;-71
2022/04/11 09:39:06;;;;;;;4.07;2.65;;;;;;;16.11;34.28;100404.47;5053959;28;20041;-71
2022/04/11 09:41:34;;;;;;;8.63;3.42;;;;;;;16.17;35.84;100405.47;5052591;28;20422;-71
2022/04/11 09:44:20;;;;;;;5.70;3.08;;;;;;;16.02;34.49;100400.31;5054124;28;20490;-71
2022/04/11 09:46:46;;;;;;;4.78;3.03;;;;;;;16.18;33.30;100399.94;5053802;28;20054;-71
2022/04/11 09:49:12;;;;;;;6.30;2.97;;;;;;;16.17;33.72;100389.34;5069668;28;20394;-70
2022/04/11 09:52:08;;;;;;;7.85;2.80;;;;;;;16.38;33.05;100391.88;5053962;28;20041;-70
2022/04/11 09:54:38;;;;;;;5.10;2.70;;;;;;;16.67;33.28;100384.38;5053897;28;20385;-70
2022/04/11 09:57:05;;;;;;;6.20;3.00;;;;;;;17.01;32.95;100383.28;5053731;28;20037;-71
2022/04/11 09:59:33;;;;;;;6.55;2.65;;;;;;;17.04;32.20;100382.88;5053555;28;20037;-70
2022/04/11 10:01:59;;;;;;;6.05;2.95;;;;;;;17.06;32.00;100370.84;5053297;28;20033;-72
2022/04/11 10:04:25;;;;;;;4.03;2.97;;;;;;;17.30;31.80;100382.78;5053784;28;20059;-71
2022/04/11 10:06:53;;;;;;;7.00;3.35;;;;;;;17.51;30.67;100376.25;5063463;28;20392;-70
2022/04/11 10:09:22;;;;;;;5.72;3.17;;;;;;;17.76;31.00;100365.56;5068722;28;20053;-70
2022/04/11 10:11:48;;;;;;;7.03;3.50;;;;;;;17.83;31.48;100354.75;5060592;28;20074;-71
2022/04/11 10:14:33;;;;;;;5.82;3.17;;;;;;;18.27;32.22;100361.88;5062322;28;20097;-71
2022/04/11 10:17:03;;;;;;;7.03;2.92;;;;;;;18.27;29.61;100366.44;5054108;28;20112;-71
2022/04/11 10:19:31;;;;;;;4.70;2.88;;;;;;;17.96;29.06;100348.44;5068901;28;20045;-72
2022/04/11 10:22:03;;;;;;;5.90;3.28;;;;;;;18.08;30.22;100357.47;5050712;28;20029;-72
2022/04/11 10:24:33;;;;;;;6.45;3.30;;;;;;;18.43;30.51;100341.59;5052428;28;20037;-72
2022/04/11 10:27:18;;;;;;;4.78;2.67;;;;;;;19.06;28.60;100354.84;5053432;28;20040;-71
2022/04/11 10:29:45;;;;;;;6.47;2.72;;;;;;;19.12;28.54;100353.13;5068616;28;20040;-71
2022/04/11 10:32:12;;;;;;;9.60;3.57;;;;;;;19.32;28.63;100355.56;5074173;22;20064;-70
2022/04/11 10:34:55;;;;;;;7.03;3.33;;;;;;;19.60;27.75;100344.19;5053303;28;20037;-72
2022/04/11 10:37:28;;;;;;;8.10;3.28;;;;;;;19.73;27.98;100349.41;5053069;28;20037;-70
2022/04/11 10:40:16;;;;;;;4.80;2.30;;;;;;;19.73;28.00;100338.59;5052995;28;20040;-72
2022/04/11 10:43:01;;;;;;;4.57;3.03;;;;;;;20.01;26.58;100324.41;5052430;28;20402;-72
2022/04/11 10:45:34;;;;;;;5.60;3.47;;;;;;;20.11;26.82;100332.78;5052776;28;20039;-71
2022/04/11 10:48:01;;;;;;;5.88;3.60;;;;;;;19.51;27.89;100324.75;5052844;28;20025;-71
2022/04/11 10:50:34;;;;;;;5.50;2.85;;;;;;;19.93;26.99;100324.78;5051557;28;20075;-71
2022/04/11 10:53:27;;;;;;;5.40;3.17;;;;;;;19.12;27.09;100321.56;5052402;28;20049;-72
2022/04/11 10:56:04;;;;;;;6.25;2.78;;;;;;;19.41;27.83;100313.69;5040618;28;20534;-73
2022/04/11 10:58:45;;;;;;;6.10;3.10;;;;;;;20.29;26.03;100304.81;5032753;28;20037;-74
2022/04/11 11:01:12;;;;;;;3.97;2.60;;;;;;;20.11;26.11;100297.66;5032410;28;20034;-73
2022/04/11 11:03:40;;;;;;;7.40;4.00;;;;;;;20.59;26.81;100293.88;5032391;28;20032;-73
2022/04/11 11:06:20;;;;;;;4.22;2.60;;;;;;;21.02;24.68;100288.00;5032581;28;20482;-73
2022/04/11 11:08:46;;;;;;;5.18;2.47;;;;;;;20.10;27.73;100287.06;5032455;28;20440;-73
2022/04/11 11:11:26;;;;;;;5.40;3.47;;;;;;;21.12;25.37;100287.38;5032436;28;20040;-73
2022/04/11 11:13:54;;;;;;;6.43;2.83;;;;;;;20.25;25.63;100288.22;5032454;28;20072;-75
2022/04/11 11:16:20;;;;;;;5.10;2.60;;;;;;;20.25;25.52;100285.53;5047570;28;20393;-73
2022/04/11 11:18:48;;;;;;;7.00;3.33;;;;;;;20.70;26.54;100270.56;5032209;28;20104;-72
2022/04/11 11:21:27;;;;;;;4.20;2.40;;;;;;;20.75;26.29;100285.03;5032040;28;20124;-72
2022/04/11 11:24:07;;;;;;;4.57;2.65;;;;;;;21.33;25.06;100275.91;5032123;28;20080;-73
2022/04/11 11:26:39;;;;;;;5.28;2.47;;;;;;;21.71;25.47;100266.25;5032817;28;20041;-72
2022/04/11 11:29:20;;;;;;;3.17;2.25;;;;;;;21.42;24.61;100272.78;5039922;28;20124;-73
2022/04/11 11:31:51;;;;;;;7.38;2.30;;;;;;;22.18;24.26;100253.19;5050814;28;20079;-73
2022/04/11 11:34:22;;;;;;;6.72;2.67;;;;;;;22.37;23.70;100251.03;5045594;28;20061;-73
2022/04/11 11:36:48;;;;;;;5.03;2.83;;;;;;;22.56;24.99;100247.97;5042433;28;20037;-73
2022/04/11 11:39:20;;;;;;;5.20;2.80;;;;;;;22.41;24.88;100235.84;5041797;28;20096;-72
2022/04/11 11:41:47;;;;;;;5.35;2.47;;;;;;;22.58;23.80;100232.28;5041686;28;20134;-72
2022/04/11 11:44:13;;;;;;;6.00;2.28;;;;;;;22.25;24.78;100239.44;5041472;28;20025;-71
2022/04/11 11:47:05;;;;;;;4.70;2.45;;;;;;;22.05;23.60;100236.41;5040302;28;20462;-73
2022/04/11 11:49:46;;;;;;;4.20;2.42;;;;;;;22.68;23.28;100233.22;5048949;28;20044;-72
2022/04/11 11:52:16;;;;;;;2.83;2.10;;;;;;;21.64;24.11;100233.88;5051195;28;20402;-72
2022/04/11 11:54:47;;;;;;;4.82;2.50;;;;;;;22.97;22.71;100231.16;5051641;28;20554;-70
2022/04/11 11:57:19;;;;;;;6.55;2.50;;;;;;;23.36;23.64;100228.28;5051492;28;20103;-72
2022/04/11 11:59:53;;;;;;;3.33;2.20;;;;;;;22.77;23.17;100225.47;5051478;28;20048;-72
2022/04/11 12:05:16;;;;;;;6.40;2.60;;;;;;;23.66;21.94;100219.56;5051486;28;20041;-70
2022/04/11 12:07:42;;;;;;;4.30;2.50;;;;;;;22.86;22.67;100209.53;5051325;28;20059;-70
2022/04/11 12:10:09;;;;;;;6.45;2.53;;;;;;;24.00;21.75;100201.06;5050219;28;20037;-74
2022/04/11 12:12:35;;;;;;;5.88;2.40;;;;;;;23.86;21.58;100208.00;5051174;28;20033;-76
2022/04/11 12:15:05;;;;;;;5.00;2.38;;;;;;;22.88;23.14;100199.25;5050364;28;20156;-77
2022/04/11 12:17:39;;;;;;;4.13;2.13;;;;;;;23.09;23.04;100197.59;5051552;28;20029;-74
2022/04/11 12:20:13;;;;;;;4.57;2.40;;;;;;;23.56;21.41;100200.44;5051415;28;20029;-73
2022/04/11 12:22:40;;;;;;;3.80;2.45;;;;;;;23.12;22.28;100186.19;5050984;28;20127;-74
2022/04/11 12:25:26;;;;;;;4.47;2.35;;;;;;;23.31;21.27;100181.22;5051479;28;20041;-73
2022/04/11 12:28:21;;;;;;;4.85;2.30;;;;;;;22.62;22.95;100177.22;5066919;28;20039;-73
2022/04/11 12:31:15;;;;;;;4.88;2.55;;;;;;;22.82;22.05;100179.38;5051199;28;20385;-73
2022/04/11 12:33:43;;;;;;;3.92;2.35;;;;;;;22.99;23.06;100176.56;5050867;28;20068;-74
2022/04/11 12:36:19;;;;;;;5.45;2.22;;;;;;;23.34;22.52;100176.06;5066841;28;20116;-74
2022/04/11 12:38:53;;;;;;;4.68;2.10;;;;;;;23.14;22.02;100168.53;5050025;28;20056;-75
2022/04/11 12:41:33;;;;;;;5.45;2.47;;;;;;;23.60;22.28;100168.09;5051098;28;20070;-74
2022/04/11 12:44:09;;;;;;;4.60;2.15;;;;;;;22.94;22.41;100158.31;5054362;28;20037;-74
2022/04/11 12:46:42;;;;;;;4.55;2.47;;;;;;;22.75;22.76;100159.72;5055105;28;20168;-75
2022/04/11 12:49:09;;;;;;;6.32;2.95;;;;;;;22.43;23.47;100156.91;5055234;28;20108;-73
2022/04/11 12:51:35;;;;;;;;;;;;;;;22.79;22.82;100154.59;5055316;28;20517;-74
2022/04/11 12:54:19;;;;;;;7.78;2.80;;;;;;;23.51;23.30;100151.47;5055002;28;20026;-75
2022/04/11 12:56:47;;;;;;;6.20;2.63;;;;;;;23.54;23.10;100148.25;5053754;28;20033;-75
2022/04/11 12:59:31;;;;;;;7.57;2.78;;;;;;;23.68;22.40;100149.47;5054970;28;20556;-75
2022/04/11 13:02:20;;;;;;;5.53;3.75;;;;;;;23.92;21.43;100147.13;5054340;28;20470;-73
2022/04/11 13:04:52;;;;;;;6.22;3.20;;;;;;;22.85;23.15;100138.09;5055093;28;20033;-75
2022/04/11 13:07:19;;;;;;;5.57;2.60;;;;;;;24.03;23.18;100129.78;5054883;28;20033;-75
2022/04/11 13:09:45;;;;;;;;;;;;;;;24.44;21.14;100121.81;5053930;28;20029;-76
2022/04/11 13:12:13;;;;;;;6.80;2.53;;;;;;;24.40;21.94;100126.16;5052987;28;20392;-72
2022/04/11 13:14:41;;;;;;;3.70;2.58;;;;;;;24.61;21.59;100116.97;5054514;28;20068;-73
2022/04/11 13:19:52;;;;;;;7.03;2.80;;;;;;;24.22;23.00;100118.44;5055403;28;20113;-76
2022/04/11 13:22:18;;;;;;;5.88;2.95;;;;;;;24.40;22.11;100112.56;5054830;28;20028;-74
2022/04/11 13:24:43;;;;;;;6.38;2.80;;;;;;;23.96;22.94;100110.16;5052972;28;20040;-75
2022/04/11 13:27:09;;;;;;;5.45;2.97;;;;;;;24.76;21.49;100107.19;5053057;28;20048;-70
2022/04/11 13:29:35;;;;;;;4.00;2.42;;;;;;;24.46;21.10;100102.50;5054144;28;20036;-71
2022/04/11 13:32:00;;;;;;;6.43;2.40;;;;;;;24.36;21.55;100104.09;5053528;28;20112;-71
2022/04/11 13:34:27;;;;;;;5.00;2.65;;;;;;;24.58;21.17;100097.63;5054050;28;20138;-71
2022/04/11 13:36:53;;;;;;;5.38;2.90;;;;;;;24.30;21.19;100090.72;5054117;28;20435;-71
2022/04/11 13:39:18;;;;;;;4.10;2.58;;;;;;;24.23;21.89;100076.53;5054110;28;20119;-71
2022/04/11 13:41:47;;;;;;;4.85;2.85;;;;;;;24.19;21.66;100076.28;5053744;28;20112;-71
2022/04/11 13:44:15;;;;;;;5.68;2.85;;;;;;;24.54;21.46;100083.72;5053882;28;20091;-71
2022/04/11 13:46:40;;;;;;;;;;;;;;;24.63;20.78;100079.38;5054370;28;20439;-71
2022/04/11 13:49:06;;;;;;;8.65;2.78;;;;;;;24.34;22.01;100075.53;5054018;28;20011;-71
2022/04/11 13:51:32;;;;;;;5.15;3.05;;;;;;;24.57;22.04;100068.75;5053550;28;20044;-71
2022/04/11 13:53:57;;;;;;;4.10;2.80;;;;;;;23.00;22.99;100075.81;5053125;28;20517;-71
2022/04/11 13:56:23;;;;;;;4.40;3.03;;;;;;;22.71;23.68;100066.28;5052628;28;20099;-71
2022/04/11 13:58:49;;;;;;;5.28;2.58;;;;;;;21.92;23.94;100064.88;5053582;28;20521;-71
2022/04/11 14:01:16;;;;;;;10.80;3.20;;;;;;;21.59;25.60;100070.41;5053552;28;20508;-71
2022/04/11 14:03:42;;;;;;;4.68;2.42;;;;;;;21.33;25.33;100061.91;5053391;28;20094;-70
2022/04/11 14:06:08;;;;;;;6.07;2.78;;;;;;;20.95;25.79;100059.09;5053380;28;20033;-70
2022/04/11 14:08:34;;;;;;;4.43;3.10;;;;;;;20.74;25.69;100056.03;5053588;28;20037;-70
2022/04/11 14:11:02;;;;;;;5.47;2.90;;;;;;;20.43;26.87;100045.72;5053244;28;20405;-71
2022/04/11 14:13:28;;;;;;;7.50;2.60;;;;;;;20.37;27.83;100030.44;5052996;28;20466;-71
2022/04/11 14:15:55;;;;;;;6.80;2.70;;;;;;;20.36;27.30;100045.03;5052022;28;20061;-71
2022/04/11 14:18:21;;;;;;;8.65;3.17;;;;;;;20.03;27.35;100027.66;5053237;28;20044;-71
2022/04/11 14:20:48;;;;;;;7.57;3.35;;;;;;;19.88;26.81;100030.03;5053217;28;20127;-71
2022/04/11 14:23:13;;;;;;;5.13;3.30;;;;;;;19.53;27.63;100022.78;5052924;28;20103;-71
2022/04/11 14:25:39;;;;;;;4.75;3.15;;;;;;;19.89;27.17;100018.19;5068295;28;20033;-69
2022/04/11 14:28:07;;;;;;;4.85;2.67;;;;;;;19.88;27.51;100017.34;5051842;28;20094;-72
2022/04/11 14:30:34;;;;;;;5.53;3.00;;;;;;;19.47;28.18;100015.63;5051845;28;20040;-71
2022/04/11 14:33:00;;;;;;;6.50;3.45;;;;;;;19.19;28.19;100003.69;5052551;28;20037;-70
2022/04/11 14:35:26;;;;;;;8.60;3.28;;;;;;;19.22;28.52;100013.19;5052984;28;20033;-70
2022/04/11 14:37:52;;;;;;;5.53;3.10;;;;;;;19.24;27.91;100006.50;5052856;28;20033;-70
2022/04/11 14:40:18;;;;;;;5.10;2.88;;;;;;;19.40;27.98;100009.53;5052972;28;20040;-71
2022/04/11 14:42:44;;;;;;;7.38;3.22;;;;;;;19.11;28.56;100003.25;5052371;28;20090;-71
2022/04/11 14:45:10;;;;;;;5.93;3.30;;;;;;;19.03;28.96;99998.16;5051329;28;20424;-71
2022/04/11 14:47:36;;;;;;;8.13;3.40;;;;;;;18.85;29.86;100001.81;5052744;28;20033;-71
2022/04/11 14:50:03;;;;;;;6.40;3.03;;;;;;;19.01;29.14;99995.72;5052639;28;20033;-70
2022/04/11 14:52:28;;;;;;;6.30;3.60;;;;;;;18.72;29.41;99985.84;5052104;28;20044;-71
2022/04/11 14:54:54;;;;;;;5.40;3.30;;;;;;;18.64;29.66;99998.56;5052521;28;20029;-70
2022/04/11 14:57:20;;;;;;;7.25;3.55;;;;;;;18.80;29.45;99989.00;5052408;28;20048;-71
2022/04/11 14:59:45;;;;;;;5.60;3.15;;;;;;;18.85;28.45;99980.22;5052454;28;20057;-70
2022/04/11 15:02:15;;;;;;;6.32;3.10;;;;;;;18.72;29.11;99985.84;5052010;28;20137;-70
2022/04/11 15:04:41;;;;;;;5.82;3.45;;;;;;;18.85;28.96;99975.66;5050593;28;20486;-70
2022/04/11 15:07:06;;;;;;;3.85;2.65;;;;;;;18.92;28.96;99976.34;5051931;28;20052;-70
2022/04/11 15:09:32;;;;;;;12.52;4.15;;;;;;;18.80;29.23;99963.91;5052058;28;20033;-70
2022/04/11 15:11:59;;;;;;;22.02;4.43;;;;;;;18.87;29.50;99970.00;5051693;28;20032;-69
2022/04/11 15:14:25;;;;;;;9.52;3.00;;;;;;;18.78;28.58;99972.25;5052172;28;20381;-70
2022/04/11 15:16:51;;;;;;;5.65;3.30;;;;;;;18.73;28.96;99965.91;5052047;28;20036;-69
2022/04/11 15:19:16;;;;;;;7.00;3.13;;;;;;;18.62;29.36;99962.91;5067269;28;20033;-70
2022/04/11 15:21:42;;;;;;;11.45;4.03;;;;;;;18.62;29.68;99962.91;5051596;28;20025;-70
2022/04/11 15:24:08;;;;;;;9.40;3.00;;;;;;;18.56;29.52;99954.94;5051796;28;20382;-70
2022/04/11 15:26:33;;;;;;;7.85;3.50;;;;;;;18.58;29.45;99956.34;5051680;28;20037;-71
2022/04/11 15:28:59;;;;;;;9.43;2.85;;;;;;;18.39;28.70;99957.50;5051816;28;20060;-70
2022/04/11 15:31:26;;;;;;;7.38;3.70;;;;;;;18.48;29.20;99956.09;5051315;28;20035;-71
2022/04/11 15:33:55;;;;;;;9.05;3.15;;;;;;;18.47;29.34;99949.06;5051547;28;20060;-71
2022/04/11 15:36:22;;;;;;;2.90;2.17;;;;;;;18.48;28.92;99939.91;5051669;28;20045;-70
2022/04/11 15:38:47;;;;;;;4.47;2.67;;;;;;;18.44;29.26;99946.81;5051615;28;20406;-70
2022/04/11 15:41:13;;;;;;;3.20;2.30;;;;;;;18.47;29.27;99940.97;5051377;28;20044;-70
2022/04/11 15:43:39;;;;;;;6.32;2.92;;;;;;;18.41;29.82;99942.72;5051273;28;20049;-71
2022/04/11 15:46:04;;;;;;;7.47;3.30;;;;;;;18.33;29.35;99936.84;5051608;28;20037;-70
2022/04/11 15:48:30;;;;;;;8.20;3.13;;;;;;;18.47;29.40;99934.75;5051457;28;20044;-70
2022/04/11 15:50:57;;;;;;;8.57;3.22;;;;;;;18.39;30.29;99931.34;5051575;28;20065;-71
2022/04/11 15:53:24;;;;;;;4.07;2.78;;;;;;;18.30;29.47;99929.22;5051360;28;20043;-71
2022/04/11 15:55:49;;;;;;;8.18;3.10;;;;;;;18.31;29.66;99925.44;5051213;28;20040;-70
2022/04/11 15:58:15;;;;;;;5.05;2.85;;;;;;;18.25;29.72;99929.06;5051528;28;20033;-70
2022/04/11 16:00:44;;;;;;;6.53;3.47;;;;;;;18.32;28.87;99924.41;5051294;28;20115;-70